sensor_id;sensor_type;location;lat;lon;timestamp;pressure;altitude;pressure_sealevel;temperature;humidity
70127;BME280;57491;42.694;23.314;2023-05-28T00:01:25;95059.78;;;16.80;74.75
70127;BME280;57491;42.694;23.314;2023-05-28T00:03:52;95056.22;;;16.74;75.12
70127;BME280;57491;42.694;23.314;2023-05-28T00:06:21;95059.25;;;16.71;75.48
70127;BME280;57491;42.694;23.314;2023-05-28T00:08:48;95052.44;;;16.70;76.07
70127;BME280;57491;42.694;23.314;2023-05-28T00:11:15;95057.88;;;16.69;75.68
70127;BME280;57491;42.694;23.314;2023-05-28T00:13:42;95060.50;;;16.69;75.30
70127;BME280;57491;42.694;23.314;2023-05-28T00:16:09;95052.63;;;16.69;74.72
70127;BME280;57491;42.694;23.314;2023-05-28T00:18:38;95066.34;;;16.71;74.90
70127;BME280;57491;42.694;23.314;2023-05-28T00:21:06;95056.28;;;16.68;74.68
70127;BME280;57491;42.694;23.314;2023-05-28T00:23:35;95059.25;;;16.71;74.86
70127;BME280;57491;42.694;23.314;2023-05-28T00:26:02;95051.88;;;16.62;75.36
70127;BME280;57491;42.694;23.314;2023-05-28T00:28:29;95055.13;;;16.57;75.47
70127;BME280;57491;42.694;23.314;2023-05-28T00:30:56;95047.69;;;16.54;75.60
70127;BME280;57491;42.694;23.314;2023-05-28T00:33:23;95045.88;;;16.55;75.31
70127;BME280;57491;42.694;23.314;2023-05-28T00:35:51;95035.84;;;16.45;75.36
70127;BME280;57491;42.694;23.314;2023-05-28T00:38:24;95033.47;;;16.43;75.62
70127;BME280;57491;42.694;23.314;2023-05-28T00:40:52;95042.72;;;16.46;75.65
70127;BME280;57491;42.694;23.314;2023-05-28T00:43:20;95050.00;;;16.44;76.39
70127;BME280;57491;42.694;23.314;2023-05-28T00:45:49;95047.16;;;16.45;75.50
70127;BME280;57491;42.694;23.314;2023-05-28T00:48:17;95042.34;;;16.42;75.58
70127;BME280;57491;42.694;23.314;2023-05-28T00:50:44;95038.94;;;16.42;75.05
70127;BME280;57491;42.694;23.314;2023-05-28T00:53:12;95041.88;;;16.27;76.04
70127;BME280;57491;42.694;23.314;2023-05-28T00:55:40;95033.66;;;16.17;75.93
70127;BME280;57491;42.694;23.314;2023-05-28T00:58:08;95039.34;;;16.14;76.31
70127;BME280;57491;42.694;23.314;2023-05-28T01:00:36;95042.00;;;16.07;76.22
70127;BME280;57491;42.694;23.314;2023-05-28T01:03:04;95042.06;;;16.01;76.50
70127;BME280;57491;42.694;23.314;2023-05-28T01:05:32;95033.22;;;15.95;76.80
70127;BME280;57491;42.694;23.314;2023-05-28T01:08:00;95028.22;;;15.94;76.55
70127;BME280;57491;42.694;23.314;2023-05-28T01:10:27;95031.84;;;15.93;76.47
70127;BME280;57491;42.694;23.314;2023-05-28T01:12:55;95035.28;;;15.93;76.82
70127;BME280;57491;42.694;23.314;2023-05-28T01:15:24;95031.41;;;15.96;77.64
70127;BME280;57491;42.694;23.314;2023-05-28T01:17:55;95029.41;;;15.98;78.06
70127;BME280;57491;42.694;23.314;2023-05-28T01:20:24;95025.34;;;16.02;78.05
70127;BME280;57491;42.694;23.314;2023-05-28T01:22:54;95020.47;;;16.05;77.00
70127;BME280;57491;42.694;23.314;2023-05-28T01:25:24;95017.28;;;15.97;76.61
70127;BME280;57491;42.694;23.314;2023-05-28T01:27:53;95010.44;;;15.96;77.05
70127;BME280;57491;42.694;23.314;2023-05-28T01:30:20;95010.44;;;15.96;76.83
70127;BME280;57491;42.694;23.314;2023-05-28T01:32:48;95013.88;;;15.96;76.91
70127;BME280;57491;42.694;23.314;2023-05-28T01:35:15;95012.50;;;15.94;76.63
70127;BME280;57491;42.694;23.314;2023-05-28T01:37:46;95013.69;;;15.91;76.77
70127;BME280;57491;42.694;23.314;2023-05-28T01:40:16;95011.63;;;16.00;77.58
70127;BME280;57491;42.694;23.314;2023-05-28T01:42:45;95013.81;;;16.03;76.92
70127;BME280;57491;42.694;23.314;2023-05-28T01:45:13;95016.75;;;16.13;77.54
70127;BME280;57491;42.694;23.314;2023-05-28T01:47:41;95007.50;;;16.11;76.95
70127;BME280;57491;42.694;23.314;2023-05-28T01:50:09;95008.25;;;16.18;76.31
70127;BME280;57491;42.694;23.314;2023-05-28T01:52:36;95007.88;;;16.14;75.44
70127;BME280;57491;42.694;23.314;2023-05-28T01:55:04;94998.75;;;15.98;76.39
70127;BME280;57491;42.694;23.314;2023-05-28T01:57:31;94996.75;;;15.94;76.29
70127;BME280;57491;42.694;23.314;2023-05-28T01:59:59;95005.94;;;16.03;77.25
70127;BME280;57491;42.694;23.314;2023-05-28T02:02:26;95011.94;;;16.10;76.95
70127;BME280;57491;42.694;23.314;2023-05-28T02:04:53;95004.81;;;16.17;77.17
70127;BME280;57491;42.694;23.314;2023-05-28T02:07:20;95004.81;;;16.17;76.45
70127;BME280;57491;42.694;23.314;2023-05-28T02:09:47;95015.09;;;16.19;75.93
70127;BME280;57491;42.694;23.314;2023-05-28T02:12:14;95005.78;;;16.23;76.28
70127;BME280;57491;42.694;23.314;2023-05-28T02:14:42;95005.78;;;16.23;75.83
70127;BME280;57491;42.694;23.314;2023-05-28T02:17:10;95006.75;;;16.28;75.81
70127;BME280;57491;42.694;23.314;2023-05-28T02:19:38;95007.56;;;16.29;76.12
70127;BME280;57491;42.694;23.314;2023-05-28T02:22:05;95010.09;;;16.35;77.11
70127;BME280;57491;42.694;23.314;2023-05-28T02:24:37;95008.13;;;16.31;75.62
70127;BME280;57491;42.694;23.314;2023-05-28T02:27:05;95011.19;;;16.28;75.89
70127;BME280;57491;42.694;23.314;2023-05-28T02:29:33;95016.22;;;16.29;74.67
70127;BME280;57491;42.694;23.314;2023-05-28T02:32:00;95023.88;;;16.31;75.52
70127;BME280;57491;42.694;23.314;2023-05-28T02:34:28;95020.59;;;16.35;75.78
70127;BME280;57491;42.694;23.314;2023-05-28T02:36:57;95015.34;;;16.35;74.96
70127;BME280;57491;42.694;23.314;2023-05-28T02:39:25;95011.72;;;16.36;74.61
70127;BME280;57491;42.694;23.314;2023-05-28T02:41:53;95016.16;;;16.36;74.63
70127;BME280;57491;42.694;23.314;2023-05-28T02:44:21;95010.50;;;16.39;75.40
70127;BME280;57491;42.694;23.314;2023-05-28T02:46:48;95009.47;;;16.40;75.26
70127;BME280;57491;42.694;23.314;2023-05-28T02:49:15;95014.06;;;16.44;75.10
70127;BME280;57491;42.694;23.314;2023-05-28T02:51:43;95010.06;;;16.42;74.29
70127;BME280;57491;42.694;23.314;2023-05-28T02:54:10;95013.19;;;16.50;75.29
70127;BME280;57491;42.694;23.314;2023-05-28T02:56:37;95015.03;;;16.50;74.69
70127;BME280;57491;42.694;23.314;2023-05-28T02:59:04;95018.44;;;16.50;74.16
70127;BME280;57491;42.694;23.314;2023-05-28T03:01:31;95015.47;;;16.47;74.68
70127;BME280;57491;42.694;23.314;2023-05-28T03:03:58;95018.44;;;16.50;74.54
70127;BME280;57491;42.694;23.314;2023-05-28T03:06:25;95017.59;;;16.57;75.15
70127;BME280;57491;42.694;23.314;2023-05-28T03:08:53;95017.75;;;16.62;75.26
70127;BME280;57491;42.694;23.314;2023-05-28T03:11:20;95014.56;;;16.60;74.37
70127;BME280;57491;42.694;23.314;2023-05-28T03:13:47;95013.97;;;16.58;73.61
70127;BME280;57491;42.694;23.314;2023-05-28T03:16:14;95016.19;;;16.54;75.02
70127;BME280;57491;42.694;23.314;2023-05-28T03:18:42;95013.97;;;16.58;73.88
70127;BME280;57491;42.694;23.314;2023-05-28T03:21:09;95016.00;;;16.56;73.93
70127;BME280;57491;42.694;23.314;2023-05-28T03:23:36;95021.66;;;16.52;74.14
70127;BME280;57491;42.694;23.314;2023-05-28T03:26:04;95019.03;;;16.52;74.23
70127;BME280;57491;42.694;23.314;2023-05-28T03:28:31;95017.19;;;16.53;74.96
70127;BME280;57491;42.694;23.314;2023-05-28T03:30:58;95024.47;;;16.58;74.74
70127;BME280;57491;42.694;23.314;2023-05-28T03:33:27;95021.84;;;16.58;73.96
70127;BME280;57491;42.694;23.314;2023-05-28T03:35:54;95024.06;;;16.54;74.16
70127;BME280;57491;42.694;23.314;2023-05-28T03:38:21;95027.69;;;16.60;75.04
70127;BME280;57491;42.694;23.314;2023-05-28T03:40:48;95024.06;;;16.61;74.97
70127;BME280;57491;42.694;23.314;2023-05-28T03:43:16;95024.06;;;16.61;75.57
70127;BME280;57491;42.694;23.314;2023-05-28T03:45:43;95017.34;;;16.65;74.91
70127;BME280;57491;42.694;23.314;2023-05-28T03:48:10;95022.00;;;16.63;74.46
70127;BME280;57491;42.694;23.314;2023-05-28T03:50:37;95021.56;;;16.66;74.14
70127;BME280;57491;42.694;23.314;2023-05-28T03:53:05;95014.28;;;16.68;74.40
70127;BME280;57491;42.694;23.314;2023-05-28T03:55:33;95021.94;;;16.69;73.73
70127;BME280;57491;42.694;23.314;2023-05-28T03:58:01;95008.88;;;16.63;73.57
70127;BME280;57491;42.694;23.314;2023-05-28T04:00:29;95016.75;;;16.63;74.40
70127;BME280;57491;42.694;23.314;2023-05-28T04:02:56;95026.03;;;16.65;74.93
70127;BME280;57491;42.694;23.314;2023-05-28T04:05:23;95020.31;;;16.68;74.51
70127;BME280;57491;42.694;23.314;2023-05-28T04:07:51;95019.53;;;16.68;74.06
70127;BME280;57491;42.694;23.314;2023-05-28T04:10:18;95025.53;;;16.75;73.12
70127;BME280;57491;42.694;23.314;2023-05-28T04:12:45;95021.06;;;16.75;73.54
70127;BME280;57491;42.694;23.314;2023-05-28T04:15:12;95031.94;;;16.79;73.34
70127;BME280;57491;42.694;23.314;2023-05-28T04:17:40;95025.88;;;16.78;74.07
70127;BME280;57491;42.694;23.314;2023-05-28T04:20:08;95032.88;;;16.84;74.05
70127;BME280;57491;42.694;23.314;2023-05-28T04:22:36;95032.81;;;16.91;73.23
70127;BME280;57491;42.694;23.314;2023-05-28T04:25:03;95032.38;;;16.94;72.84
70127;BME280;57491;42.694;23.314;2023-05-28T04:27:31;95026.69;;;16.97;73.29
70127;BME280;57491;42.694;23.314;2023-05-28T04:29:57;95040.53;;;17.04;74.41
70127;BME280;57491;42.694;23.314;2023-05-28T04:32:24;95028.22;;;17.05;73.80
70127;BME280;57491;42.694;23.314;2023-05-28T04:34:54;95030.84;;;17.05;73.10
70127;BME280;57491;42.694;23.314;2023-05-28T04:37:21;95028.44;;;17.03;72.87
70127;BME280;57491;42.694;23.314;2023-05-28T04:39:50;95032.88;;;17.03;72.49
70127;BME280;57491;42.694;23.314;2023-05-28T04:42:17;95033.31;;;17.00;72.73
70127;BME280;57491;42.694;23.314;2023-05-28T04:44:44;95025.75;;;16.91;71.41
70127;BME280;57491;42.694;23.314;2023-05-28T04:47:11;95031.34;;;16.95;72.28
70127;BME280;57491;42.694;23.314;2023-05-28T04:49:38;95028.50;;;16.97;73.46
70127;BME280;57491;42.694;23.314;2023-05-28T04:52:07;95035.16;;;16.99;72.82
70127;BME280;57491;42.694;23.314;2023-05-28T04:54:35;95029.88;;;16.99;72.87
70127;BME280;57491;42.694;23.314;2023-05-28T04:57:02;95036.47;;;17.08;73.08
70127;BME280;57491;42.694;23.314;2023-05-28T04:59:30;95042.22;;;17.17;72.81
70127;BME280;57491;42.694;23.314;2023-05-28T05:01:57;95035.34;;;16.98;71.75
70127;BME280;57491;42.694;23.314;2023-05-28T05:04:24;95037.97;;;16.98;71.96
70127;BME280;57491;42.694;23.314;2023-05-28T05:06:51;95027.63;;;17.03;72.49
70127;BME280;57491;42.694;23.314;2023-05-28T05:09:20;95036.25;;;17.10;71.93
70127;BME280;57491;42.694;23.314;2023-05-28T05:11:48;95036.00;;;17.11;71.90
70127;BME280;57491;42.694;23.314;2023-05-28T05:14:15;95035.72;;;17.19;71.78
70127;BME280;57491;42.694;23.314;2023-05-28T05:16:42;95034.56;;;17.33;72.33
70127;BME280;57491;42.694;23.314;2023-05-28T05:19:11;95029.78;;;17.42;71.34
70127;BME280;57491;42.694;23.314;2023-05-28T05:21:38;95029.50;;;17.32;70.23
70127;BME280;57491;42.694;23.314;2023-05-28T05:24:05;95020.69;;;17.26;69.67
70127;BME280;57491;42.694;23.314;2023-05-28T05:26:34;95024.31;;;17.25;69.94
70127;BME280;57491;42.694;23.314;2023-05-28T05:29:01;95022.66;;;17.31;70.01
70127;BME280;57491;42.694;23.314;2023-05-28T05:31:28;95019.03;;;17.44;69.74
70127;BME280;57491;42.694;23.314;2023-05-28T05:33:55;95029.63;;;17.55;69.68
70127;BME280;57491;42.694;23.314;2023-05-28T05:36:22;95028.53;;;17.45;69.85
70127;BME280;57491;42.694;23.314;2023-05-28T05:38:49;95026.56;;;17.58;68.74
70127;BME280;57491;42.694;23.314;2023-05-28T05:41:16;95031.19;;;17.74;68.80
70127;BME280;57491;42.694;23.314;2023-05-28T05:43:45;95031.22;;;17.86;68.38
70127;BME280;57491;42.694;23.314;2023-05-28T05:46:11;95034.69;;;17.98;67.40
70127;BME280;57491;42.694;23.314;2023-05-28T05:48:38;95024.28;;;18.03;66.92
70127;BME280;57491;42.694;23.314;2023-05-28T05:51:06;95025.91;;;18.16;66.62
70127;BME280;57491;42.694;23.314;2023-05-28T05:53:39;95010.47;;;18.08;66.55
70127;BME280;57491;42.694;23.314;2023-05-28T05:56:07;95029.59;;;18.26;67.75
70127;BME280;57491;42.694;23.314;2023-05-28T05:58:34;95025.47;;;18.31;66.83
70127;BME280;57491;42.694;23.314;2023-05-28T06:01:02;95027.53;;;18.28;66.39
70127;BME280;57491;42.694;23.314;2023-05-28T06:03:30;95031.63;;;18.24;66.51
70127;BME280;57491;42.694;23.314;2023-05-28T06:05:57;95030.16;;;18.05;65.97
70127;BME280;57491;42.694;23.314;2023-05-28T06:08:24;95037.84;;;17.89;67.08
70127;BME280;57491;42.694;23.314;2023-05-28T06:10:51;95038.13;;;17.99;68.74
70127;BME280;57491;42.694;23.314;2023-05-28T06:13:18;95032.88;;;18.10;69.30
70127;BME280;57491;42.694;23.314;2023-05-28T06:15:46;95032.09;;;18.21;70.67
70127;BME280;57491;42.694;23.314;2023-05-28T06:18:15;95037.16;;;18.35;70.13
70127;BME280;57491;42.694;23.314;2023-05-28T06:20:42;95036.47;;;18.51;69.45
70127;BME280;57491;42.694;23.314;2023-05-28T06:23:09;95034.22;;;18.66;68.26
70127;BME280;57491;42.694;23.314;2023-05-28T06:25:36;95038.22;;;18.80;67.32
70127;BME280;57491;42.694;23.314;2023-05-28T06:28:04;95039.47;;;18.89;68.15
70127;BME280;57491;42.694;23.314;2023-05-28T06:30:31;95044.75;;;18.89;67.54
70127;BME280;57491;42.694;23.314;2023-05-28T06:32:58;95048.19;;;18.90;66.87
70127;BME280;57491;42.694;23.314;2023-05-28T06:35:27;95051.63;;;18.90;68.36
70127;BME280;57491;42.694;23.314;2023-05-28T06:37:54;95050.38;;;18.81;69.18
70127;BME280;57491;42.694;23.314;2023-05-28T06:40:21;95052.31;;;18.74;68.65
70127;BME280;57491;42.694;23.314;2023-05-28T06:42:49;95051.28;;;18.75;69.63
70127;BME280;57491;42.694;23.314;2023-05-28T06:45:16;95048.31;;;18.71;70.07
70127;BME280;57491;42.694;23.314;2023-05-28T06:47:44;95046.69;;;18.70;69.27
70127;BME280;57491;42.694;23.314;2023-05-28T06:50:11;95049.78;;;18.79;69.32
70127;BME280;57491;42.694;23.314;2023-05-28T06:52:39;95054.38;;;18.72;68.94
70127;BME280;57491;42.694;23.314;2023-05-28T06:55:06;95055.75;;;18.75;68.64
70127;BME280;57491;42.694;23.314;2023-05-28T06:57:34;95055.31;;;18.78;67.75
70127;BME280;57491;42.694;23.314;2023-05-28T07:00:02;95054.50;;;18.77;68.08
70127;BME280;57491;42.694;23.314;2023-05-28T07:02:34;95056.31;;;18.88;67.67
70127;BME280;57491;42.694;23.314;2023-05-28T07:05:02;95057.00;;;18.95;67.83
70127;BME280;57491;42.694;23.314;2023-05-28T07:07:30;95055.38;;;19.06;67.96
70127;BME280;57491;42.694;23.314;2023-05-28T07:09:58;95055.91;;;19.20;68.78
70127;BME280;57491;42.694;23.314;2023-05-28T07:12:25;95054.41;;;19.35;67.12
70127;BME280;57491;42.694;23.314;2023-05-28T07:14:52;95052.44;;;19.54;66.14
70127;BME280;57491;42.694;23.314;2023-05-28T07:17:19;95052.97;;;19.68;65.98
70127;BME280;57491;42.694;23.314;2023-05-28T07:19:47;95052.69;;;19.81;65.28
70127;BME280;57491;42.694;23.314;2023-05-28T07:22:14;95046.63;;;19.97;64.69
70127;BME280;57491;42.694;23.314;2023-05-28T07:24:41;95055.13;;;20.16;64.23
70127;BME280;57491;42.694;23.314;2023-05-28T07:27:10;95050.28;;;20.41;62.53
70127;BME280;57491;42.694;23.314;2023-05-28T07:29:37;95044.75;;;20.59;59.64
70127;BME280;57491;42.694;23.314;2023-05-28T07:32:04;95050.44;;;20.68;60.42
70127;BME280;57491;42.694;23.314;2023-05-28T07:34:32;95051.22;;;20.68;60.48
70127;BME280;57491;42.694;23.314;2023-05-28T07:36:59;95055.63;;;20.79;60.60
70127;BME280;57491;42.694;23.314;2023-05-28T07:39:26;95047.16;;;20.77;59.48
70127;BME280;57491;42.694;23.314;2023-05-28T07:41:53;95041.69;;;20.67;59.55
70127;BME280;57491;42.694;23.314;2023-05-28T07:44:22;95036.41;;;20.84;59.82
70127;BME280;57491;42.694;23.314;2023-05-28T07:46:48;95038.50;;;21.04;59.30
70127;BME280;57491;42.694;23.314;2023-05-28T07:49:15;95036.97;;;21.08;57.70
70127;BME280;57491;42.694;23.314;2023-05-28T07:51:43;95031.69;;;21.08;57.83
70127;BME280;57491;42.694;23.314;2023-05-28T07:54:11;95033.22;;;21.04;57.90
70127;BME280;57491;42.694;23.314;2023-05-28T07:56:38;95031.25;;;20.94;57.73
70127;BME280;57491;42.694;23.314;2023-05-28T07:59:05;95032.91;;;20.78;58.77
70127;BME280;57491;42.694;23.314;2023-05-28T08:01:33;95035.31;;;20.63;59.96
70127;BME280;57491;42.694;23.314;2023-05-28T08:04:01;95033.25;;;20.48;60.29
70127;BME280;57491;42.694;23.314;2023-05-28T08:06:28;95023.47;;;20.16;61.07
70127;BME280;57491;42.694;23.314;2023-05-28T08:08:57;95026.50;;;20.24;60.64
70127;BME280;57491;42.694;23.314;2023-05-28T08:11:24;95032.91;;;20.45;60.09
70127;BME280;57491;42.694;23.314;2023-05-28T08:13:51;95038.59;;;20.70;58.91
70127;BME280;57491;42.694;23.314;2023-05-28T08:16:18;95032.59;;;20.75;58.27
70127;BME280;57491;42.694;23.314;2023-05-28T08:18:46;95034.97;;;20.76;57.83
70127;BME280;57491;42.694;23.314;2023-05-28T08:21:13;95025.84;;;20.67;58.51
70127;BME280;57491;42.694;23.314;2023-05-28T08:23:40;95039.88;;;20.68;58.01
70127;BME280;57491;42.694;23.314;2023-05-28T08:26:08;95036.03;;;20.75;58.99
70127;BME280;57491;42.694;23.314;2023-05-28T08:28:35;95034.38;;;20.91;58.04
70127;BME280;57491;42.694;23.314;2023-05-28T08:31:02;95036.03;;;21.14;58.13
70127;BME280;57491;42.694;23.314;2023-05-28T08:33:29;95037.88;;;21.35;57.07
70127;BME280;57491;42.694;23.314;2023-05-28T08:36:00;95038.25;;;21.44;56.59
70127;BME280;57491;42.694;23.314;2023-05-28T08:38:28;95024.84;;;21.50;55.54
70127;BME280;57491;42.694;23.314;2023-05-28T08:40:55;95028.22;;;21.67;56.10
70127;BME280;57491;42.694;23.314;2023-05-28T08:43:24;95035.69;;;21.75;55.57
70127;BME280;57491;42.694;23.314;2023-05-28T08:45:51;95034.94;;;21.80;55.14
70127;BME280;57491;42.694;23.314;2023-05-28T08:48:19;95037.41;;;21.87;55.06
70127;BME280;57491;42.694;23.314;2023-05-28T08:50:49;95040.59;;;22.10;54.81
70127;BME280;57491;42.694;23.314;2023-05-28T08:53:20;95030.44;;;22.34;53.29
70127;BME280;57491;42.694;23.314;2023-05-28T08:55:48;95035.91;;;22.54;53.49
70127;BME280;57491;42.694;23.314;2023-05-28T08:58:16;95035.47;;;22.67;52.50
70127;BME280;57491;42.694;23.314;2023-05-28T09:00:43;95035.13;;;22.91;53.21
70127;BME280;57491;42.694;23.314;2023-05-28T09:03:11;95033.94;;;23.13;51.89
70127;BME280;57491;42.694;23.314;2023-05-28T09:05:38;95031.25;;;23.08;52.19
70127;BME280;57491;42.694;23.314;2023-05-28T09:08:06;95017.97;;;23.03;51.62
70127;BME280;57491;42.694;23.314;2023-05-28T09:10:36;95032.44;;;22.86;52.69
70127;BME280;57491;42.694;23.314;2023-05-28T09:13:03;95027.06;;;22.76;51.78
70127;BME280;57491;42.694;23.314;2023-05-28T09:15:30;95026.66;;;22.94;51.58
70127;BME280;57491;42.694;23.314;2023-05-28T09:17:59;95014.72;;;22.91;51.83
70127;BME280;57491;42.694;23.314;2023-05-28T09:20:26;95032.47;;;22.91;52.40
70127;BME280;57491;42.694;23.314;2023-05-28T09:23:01;95032.06;;;23.09;50.66
70127;BME280;57491;42.694;23.314;2023-05-28T09:25:29;95021.44;;;23.09;49.99
70127;BME280;57491;42.694;23.314;2023-05-28T09:28:00;95008.53;;;23.28;49.59
70127;BME280;57491;42.694;23.314;2023-05-28T09:30:27;95022.72;;;23.53;49.77
70127;BME280;57491;42.694;23.314;2023-05-28T09:32:55;95003.13;;;23.80;48.18
70127;BME280;57491;42.694;23.314;2023-05-28T09:35:24;95021.53;;;24.12;47.80
70127;BME280;57491;42.694;23.314;2023-05-28T09:37:59;95016.47;;;24.10;47.64
70127;BME280;57491;42.694;23.314;2023-05-28T09:40:26;95015.38;;;23.81;47.63
70127;BME280;57491;42.694;23.314;2023-05-28T09:42:53;95016.38;;;23.70;47.61
70127;BME280;57491;42.694;23.314;2023-05-28T09:45:23;95031.19;;;23.45;48.64
70127;BME280;57491;42.694;23.314;2023-05-28T09:47:51;95028.06;;;23.11;49.05
70127;BME280;57491;42.694;23.314;2023-05-28T09:50:18;95030.50;;;22.71;50.25
70127;BME280;57491;42.694;23.314;2023-05-28T09:52:46;95044.16;;;22.26;51.79
70127;BME280;57491;42.694;23.314;2023-05-28T09:55:14;95030.47;;;22.07;52.67
70127;BME280;57491;42.694;23.314;2023-05-28T09:57:45;95032.13;;;22.13;52.26
70127;BME280;57491;42.694;23.314;2023-05-28T10:00:17;95026.22;;;22.33;52.97
70127;BME280;57491;42.694;23.314;2023-05-28T10:02:55;95029.63;;;23.02;51.04
70127;BME280;57491;42.694;23.314;2023-05-28T10:05:28;95029.63;;;23.60;48.51
70127;BME280;57491;42.694;23.314;2023-05-28T10:08:00;95033.66;;;23.72;47.52
70127;BME280;57491;42.694;23.314;2023-05-28T10:10:27;95037.09;;;23.68;47.74
70127;BME280;57491;42.694;23.314;2023-05-28T10:12:56;95037.13;;;23.83;48.36
70127;BME280;57491;42.694;23.314;2023-05-28T10:15:24;95031.91;;;24.33;46.33
70127;BME280;57491;42.694;23.314;2023-05-28T10:17:53;95036.97;;;24.55;44.80
70127;BME280;57491;42.694;23.314;2023-05-28T10:20:20;95036.97;;;24.35;44.85
70127;BME280;57491;42.694;23.314;2023-05-28T10:22:47;95028.75;;;24.26;45.62
70127;BME280;57491;42.694;23.314;2023-05-28T10:25:15;95032.72;;;24.24;46.91
70127;BME280;57491;42.694;23.314;2023-05-28T10:27:43;95029.25;;;24.69;45.38
70127;BME280;57491;42.694;23.314;2023-05-28T10:30:11;95020.22;;;24.60;44.34
70127;BME280;57491;42.694;23.314;2023-05-28T10:32:39;95027.13;;;24.51;45.09
70127;BME280;57491;42.694;23.314;2023-05-28T10:35:11;95024.19;;;24.72;45.04
70127;BME280;57491;42.694;23.314;2023-05-28T10:37:39;95018.84;;;25.08;42.98
70127;BME280;57491;42.694;23.314;2023-05-28T10:40:08;95021.28;;;25.68;42.83
70127;BME280;57491;42.694;23.314;2023-05-28T10:42:39;95017.34;;;25.61;43.30
70127;BME280;57491;42.694;23.314;2023-05-28T10:45:10;95016.19;;;25.08;43.28
70127;BME280;57491;42.694;23.314;2023-05-28T10:47:38;95014.34;;;24.68;44.42
70127;BME280;57491;42.694;23.314;2023-05-28T10:50:14;95008.00;;;24.38;45.53
70127;BME280;57491;42.694;23.314;2023-05-28T10:52:43;95007.41;;;23.96;45.37
70127;BME280;57491;42.694;23.314;2023-05-28T10:55:28;95004.69;;;23.61;46.18
70127;BME280;57491;42.694;23.314;2023-05-28T10:58:06;94991.91;;;23.47;46.74
70127;BME280;57491;42.694;23.314;2023-05-28T11:00:40;95005.13;;;23.42;46.62
70127;BME280;57491;42.694;23.314;2023-05-28T11:03:08;94994.03;;;23.45;47.40
70127;BME280;57491;42.694;23.314;2023-05-28T11:05:36;94993.25;;;23.55;47.45
70127;BME280;57491;42.694;23.314;2023-05-28T11:08:03;94990.06;;;23.48;47.44
70127;BME280;57491;42.694;23.314;2023-05-28T11:10:31;94988.88;;;23.29;47.88
70127;BME280;57491;42.694;23.314;2023-05-28T11:12:58;94998.75;;;23.38;47.55
70127;BME280;57491;42.694;23.314;2023-05-28T11:15:25;95002.97;;;23.34;46.56
70127;BME280;57491;42.694;23.314;2023-05-28T11:17:52;94992.97;;;23.51;46.34
70127;BME280;57491;42.694;23.314;2023-05-28T11:20:21;94994.94;;;24.01;46.07
70127;BME280;57491;42.694;23.314;2023-05-28T11:22:52;94985.38;;;24.71;44.42
70127;BME280;57491;42.694;23.314;2023-05-28T11:25:19;94982.41;;;25.03;43.98
70127;BME280;57491;42.694;23.314;2023-05-28T11:27:48;94985.84;;;25.04;43.04
70127;BME280;57491;42.694;23.314;2023-05-28T11:30:17;94987.50;;;24.90;43.62
70127;BME280;57491;42.694;23.314;2023-05-28T11:32:45;94991.22;;;24.73;43.81
70127;BME280;57491;42.694;23.314;2023-05-28T11:35:14;94991.00;;;24.44;44.16
70127;BME280;57491;42.694;23.314;2023-05-28T11:37:43;94984.34;;;24.32;44.56
70127;BME280;57491;42.694;23.314;2023-05-28T11:40:13;94983.00;;;24.50;43.56
70127;BME280;57491;42.694;23.314;2023-05-28T11:42:41;94981.50;;;25.33;42.28
70127;BME280;57491;42.694;23.314;2023-05-28T11:45:10;94971.22;;;26.09;40.90
70127;BME280;57491;42.694;23.314;2023-05-28T11:47:38;94973.78;;;26.82;39.44
70127;BME280;57491;42.694;23.314;2023-05-28T11:50:08;94964.56;;;26.46;39.37
70127;BME280;57491;42.694;23.314;2023-05-28T11:52:36;94966.69;;;26.73;39.49
70127;BME280;57491;42.694;23.314;2023-05-28T11:55:03;94975.88;;;26.90;39.51
70127;BME280;57491;42.694;23.314;2023-05-28T11:57:32;94968.63;;;26.96;38.53
70127;BME280;57491;42.694;23.314;2023-05-28T12:00:05;94974.63;;;27.06;38.76
70127;BME280;57491;42.694;23.314;2023-05-28T12:02:42;94978.59;;;27.33;38.28
70127;BME280;57491;42.694;23.314;2023-05-28T12:05:09;94981.03;;;27.29;37.91
70127;BME280;57491;42.694;23.314;2023-05-28T12:07:36;94969.63;;;26.71;37.48
70127;BME280;57491;42.694;23.314;2023-05-28T12:10:07;94963.56;;;26.37;38.54
70127;BME280;57491;42.694;23.314;2023-05-28T12:12:39;94959.16;;;26.17;39.03
70127;BME280;57491;42.694;23.314;2023-05-28T12:15:07;94961.13;;;26.06;39.82
70127;BME280;57491;42.694;23.314;2023-05-28T12:17:35;94966.44;;;25.67;40.26
70127;BME280;57491;42.694;23.314;2023-05-28T12:20:06;94969.63;;;25.05;42.49
70127;BME280;57491;42.694;23.314;2023-05-28T12:22:34;94976.59;;;24.76;43.09
70127;BME280;57491;42.694;23.314;2023-05-28T12:25:01;94976.63;;;24.51;43.41
70127;BME280;57491;42.694;23.314;2023-05-28T12:27:28;94971.88;;;24.22;43.97
70127;BME280;57491;42.694;23.314;2023-05-28T12:29:57;94979.28;;;24.10;44.52
70127;BME280;57491;42.694;23.314;2023-05-28T12:32:24;94970.19;;;23.61;44.60
70127;BME280;57491;42.694;23.314;2023-05-28T12:34:52;94963.47;;;23.43;45.15
70127;BME280;57491;42.694;23.314;2023-05-28T12:37:22;94966.38;;;23.36;45.82
70127;BME280;57491;42.694;23.314;2023-05-28T12:39:49;94967.50;;;23.45;45.64
70127;BME280;57491;42.694;23.314;2023-05-28T12:42:16;94957.47;;;23.63;46.43
70127;BME280;57491;42.694;23.314;2023-05-28T12:44:43;94968.63;;;23.85;45.29
70127;BME280;57491;42.694;23.314;2023-05-28T12:47:11;94960.94;;;23.83;44.71
70127;BME280;57491;42.694;23.314;2023-05-28T12:49:38;94960.38;;;23.71;45.14
70127;BME280;57491;42.694;23.314;2023-05-28T12:52:05;94958.81;;;23.90;44.43
70127;BME280;57491;42.694;23.314;2023-05-28T12:54:33;94955.66;;;24.04;45.10